createdAt,value
2022-11-29T00:00:03.406Z,6.3
2022-11-29T00:15:03.224Z,6.3
2022-11-29T00:30:02.426Z,6.3
2022-11-29T00:45:02.870Z,6.3
2022-11-29T01:00:02.285Z,6.3
2022-11-29T01:15:02.749Z,6.3
2022-11-29T01:30:03.257Z,6.3
2022-11-29T01:45:02.634Z,6.3
2022-11-29T02:00:03.253Z,6.2
2022-11-29T02:15:02.510Z,6.3
2022-11-29T02:30:02.902Z,6.3
2022-11-29T02:45:02.343Z,6.3
2022-11-29T03:00:02.800Z,6.3
2022-11-29T03:15:03.278Z,6.4
2022-11-29T03:30:02.674Z,6.4
2022-11-29T03:45:03.271Z,6.4
2022-11-29T04:00:02.550Z,6.5
2022-11-29T04:15:02.995Z,6.5
2022-11-29T04:30:02.433Z,6.5
2022-11-29T04:45:02.895Z,6.6
2022-11-29T05:00:02.314Z,6.6
2022-11-29T05:15:02.753Z,6.6
2022-11-29T05:30:02.301Z,6.7
2022-11-29T05:45:02.613Z,6.7
2022-11-29T06:00:03.039Z,6.7
2022-11-29T06:15:02.474Z,6.7
2022-11-29T06:30:02.906Z,6.8
2022-11-29T06:45:02.350Z,6.9
2022-11-29T07:00:02.795Z,6.9
2022-11-29T07:15:03.329Z,6.9
2022-11-29T07:30:02.657Z,6.9
2022-11-29T07:45:03.241Z,7.0
2022-11-29T08:00:02.545Z,7.1
2022-11-29T08:15:02.948Z,7.2
2022-11-29T08:30:02.381Z,7.4
2022-11-29T08:45:02.832Z,7.6
2022-11-29T09:00:02.336Z,7.7
2022-11-29T09:15:02.701Z,7.9
2022-11-29T09:30:03.341Z,7.9
2022-11-29T09:45:02.554Z,8.0
2022-11-29T10:00:02.996Z,8.2
2022-11-29T10:15:02.458Z,8.4
2022-11-29T10:30:02.890Z,8.4
2022-11-29T10:45:02.562Z,8.4
2022-11-29T11:00:02.793Z,8.5
2022-11-29T11:15:03.387Z,8.6
2022-11-29T11:30:02.637Z,8.5
2022-11-29T11:45:03.313Z,8.5
2022-11-29T12:00:07.063Z,8.6
2022-11-29T12:15:02.941Z,8.6
2022-11-29T12:30:02.397Z,8.6
2022-11-29T12:45:02.820Z,8.5
2022-11-29T13:00:03.398Z,8.4
2022-11-29T13:15:02.683Z,8.4
2022-11-29T13:30:03.118Z,8.4
2022-11-29T13:45:02.553Z,8.3
2022-11-29T14:00:02.996Z,8.3
2022-11-29T14:15:02.424Z,8.2
2022-11-29T14:30:02.869Z,8.1
2022-11-29T14:45:02.429Z,8.1
2022-11-29T15:00:02.716Z,8.0
2022-11-29T15:15:03.171Z,7.9
2022-11-29T15:30:02.590Z,7.9
2022-11-29T15:45:03.036Z,7.9
2022-11-29T16:00:02.444Z,7.9
2022-11-29T16:15:02.906Z,7.8
2022-11-29T16:30:02.467Z,7.8
2022-11-29T16:45:02.784Z,7.8
2022-11-29T17:00:03.443Z,7.8
2022-11-29T17:15:02.629Z,7.9
2022-11-29T17:30:03.072Z,7.9
2022-11-29T17:45:02.495Z,7.9
2022-11-29T18:00:02.939Z,7.9
2022-11-29T18:15:02.471Z,7.9
2022-11-29T18:30:02.828Z,7.9
2022-11-29T18:45:02.477Z,7.9
2022-11-29T19:00:02.693Z,7.9
2022-11-29T19:15:03.117Z,7.9
2022-11-29T19:30:02.567Z,7.8
2022-11-29T19:45:17.002Z,7.6
2022-11-29T20:00:03.513Z,7.5
2022-11-29T20:15:02.889Z,7.3
2022-11-29T20:30:02.493Z,7.1
2022-11-29T20:45:02.766Z,7.0
2022-11-29T21:00:03.221Z,6.9
2022-11-29T21:15:02.682Z,6.8
2022-11-29T21:30:03.109Z,6.7
2022-11-29T21:45:02.652Z,6.7
2022-11-29T22:00:02.972Z,6.6
2022-11-29T22:15:02.528Z,6.5
2022-11-29T22:30:02.839Z,6.4
2022-11-29T22:45:02.285Z,6.4
2022-11-29T23:00:02.721Z,6.3
2022-11-29T23:15:03.141Z,6.2
2022-11-29T23:30:02.578Z,6.2
2022-11-29T23:45:03.012Z,6.1
